Terminal Aerodrome Forecast
Issued by NWS Twin Cities, MN

Home | Current Version | Previous Version | Text Only | Print | Product List | Glossary On
Versions: 1 2 3 4 5 6 7 8 9 10 11 12 13 14 15 16 17 18 19 20
000
FTUS43 KMPX 312300
TAFEAU
TAF
KEAU 312332Z 0100/0124 29007KT P6SM SCT050
      TEMPO 0101/0102 4SM -TSRA BR SCT030CB BKN050
     FM010200 VRB03KT P6SM SKC
     FM011600 26005KT P6SM SCT040 BKN060
      TEMPO 0118/0122 6SM -SHRA SCT020 BKN040=

USA.gov is the U.S. government's official web portal to all federal, state and local government web resources and services.